Yellow Springs, OH

6:16 PM EST on February 26, 2015 (GMT -0500)
Dayton-Wright Brothers | Change Station
CLOSE
Current Station
Airport
Location: Dayton Wright,
Elevation: 961 ft
Nearby Weather Stations
Active Advisory: Wind Chill Advisory

Elev 961 ft 39.59 °N, 84.22 °W | Updated 6 minutes ago

Overcast
Overcast
16 °F
Feels Like 4 °F
N
9
Wind Variable Wind from North

Today
High -- | Low -- °F
--% Chance of Precip.
Yesterday
High -- | Low -- °F
Precip. -- in
7:13 AM 6:24 PM
Waxing Gibbous, 63% visible
Pressure 30.17 in
Visibility 4.0 miles
Clouds Scattered Clouds 2000 ft
Scattered Clouds 2500 ft
Overcast 3700 ft
Windchill 4 °F
Dew Point 8 °F
Humidity 71%
Rainfall 0.00 in
Snow Depth Not available.
UV 0 out of 12
Pollen .60 out of 12
Air Quality Not available.
Flu Activity Not available.
SPECI KMGY 262310Z AUTO 01008KT 4SM -SN SCT020 SCT025 OVC037 M09/M13 A3017 RMK AO2 P0000 T10891133

More Conditions Fewer Conditions

Pressure 30.17 in
Visibility 4.0 miles
Clouds Scattered Clouds 2000 ft
Scattered Clouds 2500 ft
Overcast 3700 ft
Windchill 4 °F
Dew Point 8 °F
Humidity 71%
Rainfall 0.00 in
Snow Depth Not available.
UV 0 out of 12
Pollen .60 out of 12
Air Quality Not available.
Flu Activity Not available.
SPECI KMGY 262310Z AUTO 01008KT 4SM -SN SCT020 SCT025 OVC037 M09/M13 A3017 RMK AO2 P0000 T10891133

More Conditions Fewer Conditions

10-Day Weather Forecast

Almanac

Astronomy

Feb. 26, 2015 Rise Set
Actual Time
Civil Twilight
Nautical Twilight
Astronomical Twilight
Moon
Length of Visible Light
Length of Day
Tomorrow will be .
, % of the Moon is Illuminated

Today's Extremes

State Highs State Lows

Community

WunderPhotos

Upload Photos

1,800,523 photos uploaded!

WunderBlogs® & News

Nearby

Air Quality

  Air Quality AQ Index Pollutant
Not available.

Snow Depth

Station Depth Elevation

Earthquake Activity

City Distance Mag. Time & Date
Minimum magnitude displayed is 2.5.

Coastal Water Temperatures

Place Temperature

Nearby Weather Stations

Wind Chill Advisory
Statement as of 3:56 PM EST on February 26, 2015

... Wind Chill Advisory in effect from 8 PM this evening to 11 am
EST Friday...

The National Weather Service in Wilmington has issued a Wind
Chill Advisory... which is in effect from 8 PM this evening to
11 am EST Friday.

* Hazard types... cold wind chill readings.

* Wind chill readings... as low as 14 below.

* Impacts... the frigid conditions will be dangerous to those
venturing outside. Exposure may cause frostbite.

* Winds... north 5 to 10 mph.


Precautionary/preparedness actions...

A Wind Chill Advisory is issued when wind will combine with cold
temperatures to create dangerously cold conditions for exposed
skin. The wind will make it feel like it is between 10 and 24
degrees below zero for a period of several hours. Those planning
to venture outdoors should use common sense and dress warmly,
making sure that all exposed skin is covered.